sensor_id;sensor_type;location;lat;lon;timestamp;pressure;altitude;pressure_sealevel;temperature;humidity
71938;BME280;59810;48.800;9.086;2023-02-04T00:04:40;98875.06;;;6.57;94.76
71938;BME280;59810;48.800;9.086;2023-02-04T00:07:07;98886.19;;;6.53;95.04
71938;BME280;59810;48.800;9.086;2023-02-04T00:09:35;98877.75;;;6.57;94.70
71938;BME280;59810;48.800;9.086;2023-02-04T00:12:03;98870.53;;;6.57;94.25
71938;BME280;59810;48.800;9.086;2023-02-04T00:14:28;98859.22;;;6.62;93.58
71938;BME280;59810;48.800;9.086;2023-02-04T00:16:54;98861.91;;;6.62;93.78
71938;BME280;59810;48.800;9.086;2023-02-04T00:19:24;98872.25;;;6.65;93.32
71938;BME280;59810;48.800;9.086;2023-02-04T00:21:49;98867.69;;;6.65;93.19
71938;BME280;59810;48.800;9.086;2023-02-04T00:24:15;98871.47;;;6.71;92.26
71938;BME280;59810;48.800;9.086;2023-02-04T00:26:43;98879.31;;;6.72;92.21
71938;BME280;59810;48.800;9.086;2023-02-04T00:29:08;98852.91;;;6.76;91.88
71938;BME280;59810;48.800;9.086;2023-02-04T00:31:33;98880.00;;;6.81;91.07
71938;BME280;59810;48.800;9.086;2023-02-04T00:33:59;98882.31;;;6.84;90.63
71938;BME280;59810;48.800;9.086;2023-02-04T00:36:24;98882.69;;;6.81;90.77
71938;BME280;59810;48.800;9.086;2023-02-04T00:38:49;98883.78;;;6.86;90.23
71938;BME280;59810;48.800;9.086;2023-02-04T00:41:15;98883.97;;;6.85;90.00
71938;BME280;59810;48.800;9.086;2023-02-04T00:43:40;98885.56;;;6.79;90.96
71938;BME280;59810;48.800;9.086;2023-02-04T00:46:05;98888.44;;;6.78;91.51
71938;BME280;59810;48.800;9.086;2023-02-04T00:48:31;98888.81;;;6.75;91.90
71938;BME280;59810;48.800;9.086;2023-02-04T00:50:58;98888.00;;;6.74;92.51
71938;BME280;59810;48.800;9.086;2023-02-04T00:53:23;98900.59;;;6.74;92.90
71938;BME280;59810;48.800;9.086;2023-02-04T00:55:49;98901.81;;;6.71;93.61
71938;BME280;59810;48.800;9.086;2023-02-04T00:58:14;98905.66;;;6.62;95.60
71938;BME280;59810;48.800;9.086;2023-02-04T01:00:39;98900.25;;;6.55;96.29
71938;BME280;59810;48.800;9.086;2023-02-04T01:03:07;98913.41;;;6.50;97.04
71938;BME280;59810;48.800;9.086;2023-02-04T01:05:32;98910.84;;;6.42;98.53
71938;BME280;59810;48.800;9.086;2023-02-04T01:07:57;98913.66;;;6.34;99.08
71938;BME280;59810;48.800;9.086;2023-02-04T01:10:23;98910.13;;;6.34;99.61
71938;BME280;59810;48.800;9.086;2023-02-04T01:12:48;98916.25;;;6.28;99.65
71938;BME280;59810;48.800;9.086;2023-02-04T01:15:13;98915.19;;;6.22;99.90
71938;BME280;59810;48.800;9.086;2023-02-04T01:17:39;98919.72;;;6.21;99.37
71938;BME280;59810;48.800;9.086;2023-02-04T01:20:06;98909.00;;;6.21;97.94
71938;BME280;59810;48.800;9.086;2023-02-04T01:22:31;98904.06;;;6.25;96.37
71938;BME280;59810;48.800;9.086;2023-02-04T01:24:57;98919.78;;;6.28;96.36
71938;BME280;59810;48.800;9.086;2023-02-04T01:27:24;98924.75;;;6.31;96.28
71938;BME280;59810;48.800;9.086;2023-02-04T01:29:52;98927.19;;;6.26;97.56
71938;BME280;59810;48.800;9.086;2023-02-04T01:32:18;98934.97;;;6.21;98.73
71938;BME280;59810;48.800;9.086;2023-02-04T01:34:43;98927.66;;;6.15;98.88
71938;BME280;59810;48.800;9.086;2023-02-04T01:37:08;98946.16;;;6.10;99.15
71938;BME280;59810;48.800;9.086;2023-02-04T01:39:34;98942.22;;;6.06;98.91
71938;BME280;59810;48.800;9.086;2023-02-04T01:42:02;98943.41;;;6.03;100.00
71938;BME280;59810;48.800;9.086;2023-02-04T01:44:30;98951.66;;;6.02;100.00
71938;BME280;59810;48.800;9.086;2023-02-04T01:46:56;98953.69;;;6.00;100.00
71938;BME280;59810;48.800;9.086;2023-02-04T01:49:24;98951.59;;;5.95;100.00
71938;BME280;59810;48.800;9.086;2023-02-04T01:51:49;98954.63;;;5.92;98.07
71938;BME280;59810;48.800;9.086;2023-02-04T01:54:15;98951.19;;;5.83;97.27
71938;BME280;59810;48.800;9.086;2023-02-04T01:56:44;98940.19;;;5.78;97.30
71938;BME280;59810;48.800;9.086;2023-02-04T01:59:14;98941.97;;;5.71;96.69
71938;BME280;59810;48.800;9.086;2023-02-04T02:01:46;98937.72;;;5.62;96.07
71938;BME280;59810;48.800;9.086;2023-02-04T02:04:16;98947.03;;;5.51;96.38
71938;BME280;59810;48.800;9.086;2023-02-04T02:06:49;98942.63;;;5.44;97.66
71938;BME280;59810;48.800;9.086;2023-02-04T02:09:16;98938.66;;;5.40;97.20
71938;BME280;59810;48.800;9.086;2023-02-04T02:11:41;98940.69;;;5.38;97.58
71938;BME280;59810;48.800;9.086;2023-02-04T02:14:07;98953.25;;;5.37;97.80
71938;BME280;59810;48.800;9.086;2023-02-04T02:16:33;98958.97;;;5.34;98.10
71938;BME280;59810;48.800;9.086;2023-02-04T02:19:04;98959.16;;;5.32;98.37
71938;BME280;59810;48.800;9.086;2023-02-04T02:21:39;98960.72;;;5.27;98.78
71938;BME280;59810;48.800;9.086;2023-02-04T02:24:26;98964.22;;;5.27;98.07
71938;BME280;59810;48.800;9.086;2023-02-04T02:26:54;98959.88;;;5.26;99.07
71938;BME280;59810;48.800;9.086;2023-02-04T02:29:23;98964.88;;;5.29;98.89
71938;BME280;59810;48.800;9.086;2023-02-04T02:31:51;98954.91;;;5.23;99.96
71938;BME280;59810;48.800;9.086;2023-02-04T02:34:17;98966.63;;;5.22;100.00
71938;BME280;59810;48.800;9.086;2023-02-04T02:36:44;98980.47;;;5.26;100.00
71938;BME280;59810;48.800;9.086;2023-02-04T02:39:10;98982.03;;;5.20;100.00
71938;BME280;59810;48.800;9.086;2023-02-04T02:41:35;98991.25;;;5.18;100.00
71938;BME280;59810;48.800;9.086;2023-02-04T02:44:04;98993.72;;;5.19;100.00
71938;BME280;59810;48.800;9.086;2023-02-04T02:46:29;98986.72;;;5.18;100.00
71938;BME280;59810;48.800;9.086;2023-02-04T02:48:55;98981.72;;;5.15;100.00
71938;BME280;59810;48.800;9.086;2023-02-04T02:51:20;98979.69;;;5.17;100.00
71938;BME280;59810;48.800;9.086;2023-02-04T02:53:46;98978.59;;;5.12;100.00
71938;BME280;59810;48.800;9.086;2023-02-04T02:56:13;98975.91;;;5.12;100.00
71938;BME280;59810;48.800;9.086;2023-02-04T02:58:38;98977.94;;;5.10;100.00
71938;BME280;59810;48.800;9.086;2023-02-04T03:01:09;98972.59;;;5.10;100.00
71938;BME280;59810;48.800;9.086;2023-02-04T03:03:39;98977.84;;;5.03;100.00
71938;BME280;59810;48.800;9.086;2023-02-04T03:06:10;98974.63;;;5.08;100.00
71938;BME280;59810;48.800;9.086;2023-02-04T03:08:37;98975.44;;;5.08;100.00
71938;BME280;59810;48.800;9.086;2023-02-04T03:11:03;98981.16;;;5.05;100.00
71938;BME280;59810;48.800;9.086;2023-02-04T03:13:29;98988.53;;;5.03;100.00
71938;BME280;59810;48.800;9.086;2023-02-04T03:15:54;98993.91;;;5.03;100.00
71938;BME280;59810;48.800;9.086;2023-02-04T03:18:20;99018.28;;;5.08;100.00
71938;BME280;59810;48.800;9.086;2023-02-04T03:20:47;99016.78;;;5.06;100.00
71938;BME280;59810;48.800;9.086;2023-02-04T03:23:14;99023.63;;;5.08;100.00
71938;BME280;59810;48.800;9.086;2023-02-04T03:25:40;99024.00;;;5.05;100.00
71938;BME280;59810;48.800;9.086;2023-02-04T03:28:05;99038.50;;;5.11;100.00
71938;BME280;59810;48.800;9.086;2023-02-04T03:30:31;99034.81;;;5.12;100.00
71938;BME280;59810;48.800;9.086;2023-02-04T03:32:57;99040.34;;;5.10;100.00
71938;BME280;59810;48.800;9.086;2023-02-04T03:35:22;99032.78;;;5.14;100.00
71938;BME280;59810;48.800;9.086;2023-02-04T03:37:48;99041.16;;;5.11;100.00
71938;BME280;59810;48.800;9.086;2023-02-04T03:40:14;99055.38;;;5.11;100.00
71938;BME280;59810;48.800;9.086;2023-02-04T03:42:39;99042.91;;;5.04;100.00
71938;BME280;59810;48.800;9.086;2023-02-04T03:45:05;99054.63;;;5.03;100.00
71938;BME280;59810;48.800;9.086;2023-02-04T03:47:31;99046.78;;;5.01;100.00
71938;BME280;59810;48.800;9.086;2023-02-04T03:49:56;99039.41;;;5.03;100.00
71938;BME280;59810;48.800;9.086;2023-02-04T03:52:21;99049.81;;;4.98;100.00
71938;BME280;59810;48.800;9.086;2023-02-04T03:54:47;99049.63;;;4.99;100.00
71938;BME280;59810;48.800;9.086;2023-02-04T03:57:12;99049.81;;;4.98;100.00
71938;BME280;59810;48.800;9.086;2023-02-04T03:59:40;99049.81;;;4.98;100.00
71938;BME280;59810;48.800;9.086;2023-02-04T04:02:05;99045.47;;;4.97;100.00
71938;BME280;59810;48.800;9.086;2023-02-04T04:04:30;99052.03;;;4.94;100.00
71938;BME280;59810;48.800;9.086;2023-02-04T04:06:58;99046.50;;;4.96;100.00
71938;BME280;59810;48.800;9.086;2023-02-04T04:09:23;99046.97;;;4.99;100.00
71938;BME280;59810;48.800;9.086;2023-02-04T04:11:48;99045.28;;;4.98;100.00
71938;BME280;59810;48.800;9.086;2023-02-04T04:14:14;99050.66;;;4.98;100.00
71938;BME280;59810;48.800;9.086;2023-02-04T04:16:39;99053.44;;;5.05;100.00
71938;BME280;59810;48.800;9.086;2023-02-04T04:19:04;99059.31;;;5.00;100.00
71938;BME280;59810;48.800;9.086;2023-02-04T04:21:30;99051.47;;;4.99;100.00
71938;BME280;59810;48.800;9.086;2023-02-04T04:23:55;99059.97;;;5.03;100.00
71938;BME280;59810;48.800;9.086;2023-02-04T04:26:23;99059.50;;;4.99;100.00
71938;BME280;59810;48.800;9.086;2023-02-04T04:28:48;99062.19;;;4.99;100.00
71938;BME280;59810;48.800;9.086;2023-02-04T04:31:13;99066.72;;;4.98;100.00
71938;BME280;59810;48.800;9.086;2023-02-04T04:33:39;99080.28;;;4.97;100.00
71938;BME280;59810;48.800;9.086;2023-02-04T04:36:09;99083.94;;;4.96;100.00
71938;BME280;59810;48.800;9.086;2023-02-04T04:38:34;99082.13;;;4.96;100.00
71938;BME280;59810;48.800;9.086;2023-02-04T04:41:00;99084.59;;;4.98;100.00
71938;BME280;59810;48.800;9.086;2023-02-04T04:43:25;99092.63;;;4.98;100.00
71938;BME280;59810;48.800;9.086;2023-02-04T04:45:53;99096.81;;;5.00;100.00
71938;BME280;59810;48.800;9.086;2023-02-04T04:48:18;99093.09;;;5.02;100.00
71938;BME280;59810;48.800;9.086;2023-02-04T04:50:46;99095.59;;;5.03;100.00
71938;BME280;59810;48.800;9.086;2023-02-04T04:53:11;99097.28;;;5.04;100.00
71938;BME280;59810;48.800;9.086;2023-02-04T04:55:37;99094.59;;;5.04;100.00
71938;BME280;59810;48.800;9.086;2023-02-04T04:58:03;99092.75;;;5.05;100.00
71938;BME280;59810;48.800;9.086;2023-02-04T05:00:29;99092.56;;;5.06;100.00
71938;BME280;59810;48.800;9.086;2023-02-04T05:02:54;99091.75;;;5.06;100.00
71938;BME280;59810;48.800;9.086;2023-02-04T05:05:20;99097.09;;;5.06;100.00
71938;BME280;59810;48.800;9.086;2023-02-04T05:07:45;99097.28;;;5.04;100.00
71938;BME280;59810;48.800;9.086;2023-02-04T05:10:10;99097.28;;;5.04;100.00
71938;BME280;59810;48.800;9.086;2023-02-04T05:12:36;99100.97;;;5.03;100.00
71938;BME280;59810;48.800;9.086;2023-02-04T05:15:01;99096.31;;;4.97;100.00
71938;BME280;59810;48.800;9.086;2023-02-04T05:17:27;99094.66;;;4.96;100.00
71938;BME280;59810;48.800;9.086;2023-02-04T05:19:52;99084.13;;;4.94;100.00
71938;BME280;59810;48.800;9.086;2023-02-04T05:22:17;99092.34;;;4.93;100.00
71938;BME280;59810;48.800;9.086;2023-02-04T05:24:42;99096.22;;;4.90;100.00
71938;BME280;59810;48.800;9.086;2023-02-04T05:27:08;99089.38;;;4.88;100.00
71938;BME280;59810;48.800;9.086;2023-02-04T05:29:33;99090.22;;;4.80;100.00
71938;BME280;59810;48.800;9.086;2023-02-04T05:31:58;99097.78;;;4.77;100.00
71938;BME280;59810;48.800;9.086;2023-02-04T05:34:24;99116.50;;;4.77;100.00
71938;BME280;59810;48.800;9.086;2023-02-04T05:36:49;99109.50;;;4.76;100.00
71938;BME280;59810;48.800;9.086;2023-02-04T05:39:14;99120.56;;;4.73;100.00
71938;BME280;59810;48.800;9.086;2023-02-04T05:41:40;99114.38;;;4.72;100.00
71938;BME280;59810;48.800;9.086;2023-02-04T05:44:07;99120.56;;;4.73;100.00
71938;BME280;59810;48.800;9.086;2023-02-04T05:46:33;99112.69;;;4.71;100.00
71938;BME280;59810;48.800;9.086;2023-02-04T05:48:58;99112.53;;;4.73;100.00
71938;BME280;59810;48.800;9.086;2023-02-04T05:51:23;99113.34;;;4.73;100.00
71938;BME280;59810;48.800;9.086;2023-02-04T05:53:49;99119.38;;;4.75;100.00
71938;BME280;59810;48.800;9.086;2023-02-04T05:56:14;99115.84;;;4.75;100.00
71938;BME280;59810;48.800;9.086;2023-02-04T05:58:39;99110.19;;;4.69;100.00
71938;BME280;59810;48.800;9.086;2023-02-04T06:01:07;99115.56;;;4.69;100.00
71938;BME280;59810;48.800;9.086;2023-02-04T06:03:32;99115.72;;;4.68;100.00
71938;BME280;59810;48.800;9.086;2023-02-04T06:05:58;99128.28;;;4.67;100.00
71938;BME280;59810;48.800;9.086;2023-02-04T06:08:23;99143.50;;;4.67;100.00
71938;BME280;59810;48.800;9.086;2023-02-04T06:10:49;99149.19;;;4.64;100.00
71938;BME280;59810;48.800;9.086;2023-02-04T06:13:14;99160.72;;;4.64;100.00
71938;BME280;59810;48.800;9.086;2023-02-04T06:15:39;99145.03;;;4.61;100.00
71938;BME280;59810;48.800;9.086;2023-02-04T06:18:05;99145.38;;;4.58;100.00
71938;BME280;59810;48.800;9.086;2023-02-04T06:20:31;99158.94;;;4.57;100.00
71938;BME280;59810;48.800;9.086;2023-02-04T06:22:56;99152.75;;;4.56;100.00
71938;BME280;59810;48.800;9.086;2023-02-04T06:25:22;99163.59;;;4.55;100.00
71938;BME280;59810;48.800;9.086;2023-02-04T06:27:47;99167.44;;;4.52;100.00
71938;BME280;59810;48.800;9.086;2023-02-04T06:30:13;99180.81;;;4.52;100.00
71938;BME280;59810;48.800;9.086;2023-02-04T06:32:39;99181.00;;;4.51;100.00
71938;BME280;59810;48.800;9.086;2023-02-04T06:35:05;99185.50;;;4.50;100.00
71938;BME280;59810;48.800;9.086;2023-02-04T06:37:32;99178.31;;;4.51;100.00
71938;BME280;59810;48.800;9.086;2023-02-04T06:39:58;99176.47;;;4.51;100.00
71938;BME280;59810;48.800;9.086;2023-02-04T06:42:23;99172.13;;;4.50;100.00
71938;BME280;59810;48.800;9.086;2023-02-04T06:44:50;99172.31;;;4.49;100.00
71938;BME280;59810;48.800;9.086;2023-02-04T06:47:15;99170.28;;;4.51;100.00
71938;BME280;59810;48.800;9.086;2023-02-04T06:49:47;99183.19;;;4.55;100.00
71938;BME280;59810;48.800;9.086;2023-02-04T06:52:13;99186.81;;;4.54;100.00
71938;BME280;59810;48.800;9.086;2023-02-04T06:54:38;99189.84;;;4.51;100.00
71938;BME280;59810;48.800;9.086;2023-02-04T06:57:03;99196.19;;;4.50;100.00
71938;BME280;59810;48.800;9.086;2023-02-04T06:59:36;99198.22;;;4.48;100.00
71938;BME280;59810;48.800;9.086;2023-02-04T07:02:03;99198.22;;;4.48;100.00
71938;BME280;59810;48.800;9.086;2023-02-04T07:04:29;99201.25;;;4.45;100.00
71938;BME280;59810;48.800;9.086;2023-02-04T07:06:57;99206.59;;;4.45;100.00
71938;BME280;59810;48.800;9.086;2023-02-04T07:09:22;99205.56;;;4.46;100.00
71938;BME280;59810;48.800;9.086;2023-02-04T07:11:47;99207.59;;;4.44;100.00
71938;BME280;59810;48.800;9.086;2023-02-04T07:14:13;99205.56;;;4.46;100.00
71938;BME280;59810;48.800;9.086;2023-02-04T07:16:38;99224.97;;;4.48;100.00
71938;BME280;59810;48.800;9.086;2023-02-04T07:19:04;99231.16;;;4.49;100.00
71938;BME280;59810;48.800;9.086;2023-02-04T07:21:29;99243.69;;;4.48;100.00
71938;BME280;59810;48.800;9.086;2023-02-04T07:23:54;99245.19;;;4.51;100.00
71938;BME280;59810;48.800;9.086;2023-02-04T07:26:20;99238.50;;;4.47;100.00
71938;BME280;59810;48.800;9.086;2023-02-04T07:28:46;99241.84;;;4.49;100.00
71938;BME280;59810;48.800;9.086;2023-02-04T07:31:11;99244.00;;;4.53;100.00
71938;BME280;59810;48.800;9.086;2023-02-04T07:33:36;99246.19;;;4.50;100.00
71938;BME280;59810;48.800;9.086;2023-02-04T07:36:02;99252.72;;;4.47;100.00
71938;BME280;59810;48.800;9.086;2023-02-04T07:38:27;99255.38;;;4.47;100.00
71938;BME280;59810;48.800;9.086;2023-02-04T07:40:53;99237.19;;;4.43;100.00
71938;BME280;59810;48.800;9.086;2023-02-04T07:43:18;99244.03;;;4.45;100.00
71938;BME280;59810;48.800;9.086;2023-02-04T07:45:43;99248.72;;;4.43;100.00
71938;BME280;59810;48.800;9.086;2023-02-04T07:48:09;99246.69;;;4.45;100.00
71938;BME280;59810;48.800;9.086;2023-02-04T07:50:35;99259.41;;;4.43;100.00
71938;BME280;59810;48.800;9.086;2023-02-04T07:53:03;99260.25;;;4.44;100.00
71938;BME280;59810;48.800;9.086;2023-02-04T07:55:28;99268.09;;;4.45;100.00
71938;BME280;59810;48.800;9.086;2023-02-04T07:57:54;99270.59;;;4.47;100.00
71938;BME280;59810;48.800;9.086;2023-02-04T08:00:19;99280.13;;;4.49;100.00
71938;BME280;59810;48.800;9.086;2023-02-04T08:02:45;99287.78;;;4.52;100.00
71938;BME280;59810;48.800;9.086;2023-02-04T08:05:10;99280.78;;;4.51;100.00
71938;BME280;59810;48.800;9.086;2023-02-04T08:07:36;99292.13;;;4.53;100.00
71938;BME280;59810;48.800;9.086;2023-02-04T08:10:03;99283.94;;;4.55;100.00
71938;BME280;59810;48.800;9.086;2023-02-04T08:12:28;99291.13;;;4.54;100.00
71938;BME280;59810;48.800;9.086;2023-02-04T08:14:54;99297.84;;;4.58;100.00
71938;BME280;59810;48.800;9.086;2023-02-04T08:17:22;99289.47;;;4.61;100.00
71938;BME280;59810;48.800;9.086;2023-02-04T08:19:47;99293.81;;;4.62;100.00
71938;BME280;59810;48.800;9.086;2023-02-04T08:22:12;99294.31;;;4.66;100.00
71938;BME280;59810;48.800;9.086;2023-02-04T08:24:38;99302.31;;;4.66;100.00
71938;BME280;59810;48.800;9.086;2023-02-04T08:27:03;99304.31;;;4.72;100.00
71938;BME280;59810;48.800;9.086;2023-02-04T08:29:31;99311.16;;;4.75;100.00
71938;BME280;59810;48.800;9.086;2023-02-04T08:31:58;99310.31;;;4.74;100.00
71938;BME280;59810;48.800;9.086;2023-02-04T08:34:24;99315.50;;;4.76;100.00
71938;BME280;59810;48.800;9.086;2023-02-04T08:36:49;99321.34;;;4.79;100.00
71938;BME280;59810;48.800;9.086;2023-02-04T08:39:14;99310.28;;;4.82;100.00
71938;BME280;59810;48.800;9.086;2023-02-04T08:41:40;99307.63;;;4.82;100.00
71938;BME280;59810;48.800;9.086;2023-02-04T08:44:05;99308.28;;;4.84;100.00
71938;BME280;59810;48.800;9.086;2023-02-04T08:46:30;99311.78;;;4.93;100.00
71938;BME280;59810;48.800;9.086;2023-02-04T08:48:56;99308.06;;;5.02;100.00
71938;BME280;59810;48.800;9.086;2023-02-04T08:51:24;99315.09;;;5.03;100.00
71938;BME280;59810;48.800;9.086;2023-02-04T08:53:50;99326.63;;;5.04;100.00
71938;BME280;59810;48.800;9.086;2023-02-04T08:56:15;99323.78;;;5.05;100.00
71938;BME280;59810;48.800;9.086;2023-02-04T08:58:42;99331.81;;;5.05;100.00
71938;BME280;59810;48.800;9.086;2023-02-04T09:01:10;99343.19;;;5.07;100.00
71938;BME280;59810;48.800;9.086;2023-02-04T09:03:37;99343.19;;;5.07;100.00
71938;BME280;59810;48.800;9.086;2023-02-04T09:06:03;99349.53;;;5.06;100.00
71938;BME280;59810;48.800;9.086;2023-02-04T09:08:32;99339.31;;;5.10;100.00
71938;BME280;59810;48.800;9.086;2023-02-04T09:10:58;99346.34;;;5.11;100.00
71938;BME280;59810;48.800;9.086;2023-02-04T09:13:24;99350.19;;;5.08;100.00
71938;BME280;59810;48.800;9.086;2023-02-04T09:15:49;99349.56;;;4.98;99.71
71938;BME280;59810;48.800;9.086;2023-02-04T09:18:16;99357.94;;;4.95;99.33
71938;BME280;59810;48.800;9.086;2023-02-04T09:20:44;99350.44;;;4.90;99.89
71938;BME280;59810;48.800;9.086;2023-02-04T09:23:10;99355.44;;;4.93;100.00
71938;BME280;59810;48.800;9.086;2023-02-04T09:25:41;99369.28;;;5.05;98.76
71938;BME280;59810;48.800;9.086;2023-02-04T09:28:07;99371.94;;;5.13;97.88
71938;BME280;59810;48.800;9.086;2023-02-04T09:30:43;99368.03;;;5.32;96.81
71938;BME280;59810;48.800;9.086;2023-02-04T09:33:10;99364.81;;;5.37;96.71
71938;BME280;59810;48.800;9.086;2023-02-04T09:35:35;99368.81;;;5.41;95.88
71938;BME280;59810;48.800;9.086;2023-02-04T09:38:01;99367.16;;;5.40;95.36
71938;BME280;59810;48.800;9.086;2023-02-04T09:40:36;99373.69;;;5.37;89.72
71938;BME280;59810;48.800;9.086;2023-02-04T09:43:03;99379.25;;;5.27;91.11
71938;BME280;59810;48.800;9.086;2023-02-04T09:45:32;99389.63;;;5.30;91.18
71938;BME280;59810;48.800;9.086;2023-02-04T09:48:02;99384.09;;;5.32;90.92
71938;BME280;59810;48.800;9.086;2023-02-04T09:50:31;99395.59;;;5.41;93.04
71938;BME280;59810;48.800;9.086;2023-02-04T09:53:04;99399.41;;;5.54;91.72
71938;BME280;59810;48.800;9.086;2023-02-04T09:55:36;99399.09;;;5.49;92.24
71938;BME280;59810;48.800;9.086;2023-02-04T09:58:07;99386.03;;;5.46;94.78
71938;BME280;59810;48.800;9.086;2023-02-04T10:00:38;99402.28;;;5.45;91.72
71938;BME280;59810;48.800;9.086;2023-02-04T10:03:13;99385.91;;;5.40;94.58
71938;BME280;59810;48.800;9.086;2023-02-04T10:05:45;99389.59;;;5.39;89.52
71938;BME280;59810;48.800;9.086;2023-02-04T10:08:16;99386.25;;;5.37;90.18
71938;BME280;59810;48.800;9.086;2023-02-04T10:10:43;99390.63;;;5.29;88.86
71938;BME280;59810;48.800;9.086;2023-02-04T10:13:17;99381.59;;;5.30;89.11
71938;BME280;59810;48.800;9.086;2023-02-04T10:15:45;99389.63;;;5.30;90.65
71938;BME280;59810;48.800;9.086;2023-02-04T10:18:18;99385.94;;;5.31;89.22
71938;BME280;59810;48.800;9.086;2023-02-04T10:20:44;99401.28;;;5.46;85.20
71938;BME280;59810;48.800;9.086;2023-02-04T10:23:11;99396.94;;;5.45;82.28
71938;BME280;59810;48.800;9.086;2023-02-04T10:25:37;99390.88;;;5.51;84.64
71938;BME280;59810;48.800;9.086;2023-02-04T10:28:09;99381.81;;;5.60;83.33
71938;BME280;59810;48.800;9.086;2023-02-04T10:30:40;99382.66;;;5.60;81.43
71938;BME280;59810;48.800;9.086;2023-02-04T10:33:35;99385.94;;;5.71;81.78
71938;BME280;59810;48.800;9.086;2023-02-04T10:36:03;99383.72;;;5.74;84.59
71938;BME280;59810;48.800;9.086;2023-02-04T10:38:29;99383.56;;;5.76;81.78
71938;BME280;59810;48.800;9.086;2023-02-04T10:41:02;99380.81;;;5.84;82.50
71938;BME280;59810;48.800;9.086;2023-02-04T10:43:31;99372.97;;;5.90;83.00
71938;BME280;59810;48.800;9.086;2023-02-04T10:46:02;99379.75;;;6.01;79.63
71938;BME280;59810;48.800;9.086;2023-02-04T10:48:28;99377.19;;;6.08;72.38
71938;BME280;59810;48.800;9.086;2023-02-04T10:50:57;99379.41;;;6.04;75.53
71938;BME280;59810;48.800;9.086;2023-02-04T10:53:24;99375.88;;;6.04;76.53
71938;BME280;59810;48.800;9.086;2023-02-04T10:56:19;99367.59;;;5.90;75.75
71938;BME280;59810;48.800;9.086;2023-02-04T10:58:45;99374.28;;;5.95;75.60
71938;BME280;59810;48.800;9.086;2023-02-04T11:01:13;99381.31;;;5.96;74.85
71938;BME280;59810;48.800;9.086;2023-02-04T11:03:42;99381.13;;;5.97;75.27
71938;BME280;59810;48.800;9.086;2023-02-04T11:06:16;99389.16;;;5.97;76.58
71938;BME280;59810;48.800;9.086;2023-02-04T11:08:44;99394.84;;;6.02;77.59
71938;BME280;59810;48.800;9.086;2023-02-04T11:11:16;99400.59;;;5.91;74.62
71938;BME280;59810;48.800;9.086;2023-02-04T11:18:54;99397.41;;;5.96;74.77
71938;BME280;59810;48.800;9.086;2023-02-04T11:21:40;99388.34;;;5.97;75.34
71938;BME280;59810;48.800;9.086;2023-02-04T11:29:08;99387.75;;;6.32;71.72
71938;BME280;59810;48.800;9.086;2023-02-04T11:39:47;99386.47;;;6.66;71.62
71938;BME280;59810;48.800;9.086;2023-02-04T11:42:16;99387.13;;;6.68;69.74
71938;BME280;59810;48.800;9.086;2023-02-04T11:44:50;99386.56;;;6.72;70.40
71938;BME280;59810;48.800;9.086;2023-02-04T11:47:16;99387.84;;;6.62;68.99
71938;BME280;59810;48.800;9.086;2023-02-04T11:49:42;99379.16;;;6.60;69.16
71938;BME280;59810;48.800;9.086;2023-02-04T11:52:13;99379.06;;;6.68;71.24
71938;BME280;59810;48.800;9.086;2023-02-04T11:54:38;99390.47;;;6.70;70.98
71938;BME280;59810;48.800;9.086;2023-02-04T11:57:04;99388.44;;;6.72;69.71
71938;BME280;59810;48.800;9.086;2023-02-04T11:59:30;99381.69;;;6.76;69.51
71938;BME280;59810;48.800;9.086;2023-02-04T12:02:14;99386.81;;;6.85;70.14
71938;BME280;59810;48.800;9.086;2023-02-04T12:04:50;99382.72;;;6.90;68.16
71938;BME280;59810;48.800;9.086;2023-02-04T12:07:20;99380.78;;;6.83;69.05
71938;BME280;59810;48.800;9.086;2023-02-04T12:09:47;99387.09;;;6.91;69.16
71938;BME280;59810;48.800;9.086;2023-02-04T12:12:28;99386.53;;;7.10;69.27
71938;BME280;59810;48.800;9.086;2023-02-04T12:15:03;99386.81;;;7.30;68.74
71938;BME280;59810;48.800;9.086;2023-02-04T12:17:31;99394.63;;;7.25;64.26
71938;BME280;59810;48.800;9.086;2023-02-04T12:19:56;99382.38;;;7.22;63.77
71938;BME280;59810;48.800;9.086;2023-02-04T12:22:21;99391.47;;;7.36;66.02
71938;BME280;59810;48.800;9.086;2023-02-04T12:24:47;99394.88;;;7.30;62.19
71938;BME280;59810;48.800;9.086;2023-02-04T12:27:16;99396.56;;;7.31;61.81
71938;BME280;59810;48.800;9.086;2023-02-04T12:29:41;99404.69;;;7.37;63.52
71938;BME280;59810;48.800;9.086;2023-02-04T12:32:07;99397.56;;;7.30;60.21
71938;BME280;59810;48.800;9.086;2023-02-04T12:34:32;99400.72;;;7.18;60.06
71938;BME280;59810;48.800;9.086;2023-02-04T12:37:00;99391.28;;;7.23;61.19
71938;BME280;59810;48.800;9.086;2023-02-04T12:39:25;99389.44;;;7.23;62.84
71938;BME280;59810;48.800;9.086;2023-02-04T12:41:52;99396.19;;;7.19;63.50
71938;BME280;59810;48.800;9.086;2023-02-04T12:44:17;99394.63;;;7.25;62.39
71938;BME280;59810;48.800;9.086;2023-02-04T12:46:43;99398.13;;;7.25;61.84
71938;BME280;59810;48.800;9.086;2023-02-04T12:49:10;99393.13;;;7.22;62.58
71938;BME280;59810;48.800;9.086;2023-02-04T12:51:36;99403.69;;;7.38;62.21
71938;BME280;59810;48.800;9.086;2023-02-04T12:54:01;99396.81;;;7.36;61.05
71938;BME280;59810;48.800;9.086;2023-02-04T12:56:29;99399.81;;;7.26;62.53
71938;BME280;59810;48.800;9.086;2023-02-04T12:58:54;99402.41;;;7.20;65.00
71938;BME280;59810;48.800;9.086;2023-02-04T13:01:19;99399.34;;;7.23;60.92
71938;BME280;59810;48.800;9.086;2023-02-04T13:03:44;99393.88;;;7.16;60.09
71938;BME280;59810;48.800;9.086;2023-02-04T13:06:10;99397.91;;;6.97;60.34
71938;BME280;59810;48.800;9.086;2023-02-04T13:08:35;99401.16;;;6.93;61.16
71938;BME280;59810;48.800;9.086;2023-02-04T13:11:00;99402.00;;;6.93;59.75
71938;BME280;59810;48.800;9.086;2023-02-04T13:13:26;99397.34;;;6.87;64.54
71938;BME280;59810;48.800;9.086;2023-02-04T13:15:51;99406.31;;;6.79;66.75
71938;BME280;59810;48.800;9.086;2023-02-04T13:18:16;99407.09;;;6.88;67.73
71938;BME280;59810;48.800;9.086;2023-02-04T13:20:42;99401.06;;;6.86;67.95
71938;BME280;59810;48.800;9.086;2023-02-04T13:23:08;99401.59;;;6.81;69.28
71938;BME280;59810;48.800;9.086;2023-02-04T13:25:34;99405.69;;;6.92;68.92